createdAt,value
2019-04-13T00:00:45.126Z,99537.33
2019-04-13T00:03:14.137Z,99535.35
2019-04-13T00:06:01.845Z,99540.16
2019-04-13T00:08:32.894Z,99536.80
2019-04-13T00:11:19.589Z,99538.84
2019-04-13T00:13:48.624Z,99535.85
2019-04-13T00:16:18.888Z,99529.88
2019-04-13T00:18:47.971Z,99536.80
2019-04-13T00:21:17.058Z,99528.92
2019-04-13T00:23:46.432Z,99529.59
2019-04-13T00:26:15.585Z,99526.56
2019-04-13T00:28:44.623Z,99517.31
2019-04-13T00:31:13.795Z,99523.17
2019-04-13T00:33:42.823Z,99524.66
2019-04-13T00:36:11.977Z,99525.78
2019-04-13T00:38:41.055Z,99511.97
2019-04-13T00:41:10.098Z,99513.93
2019-04-13T00:43:39.130Z,99509.87
2019-04-13T00:46:08.209Z,99513.20
2019-04-13T00:48:37.258Z,99518.26
2019-04-13T00:51:06.419Z,99510.80
2019-04-13T00:53:35.455Z,99511.15
2019-04-13T00:56:04.604Z,99514.31
2019-04-13T00:58:33.642Z,99513.93
2019-04-13T01:01:02.691Z,99508.84
2019-04-13T01:03:31.834Z,99510.50
2019-04-13T01:06:00.886Z,99511.31
2019-04-13T01:08:29.947Z,99506.64
2019-04-13T01:10:59.071Z,99503.28
2019-04-13T01:13:28.094Z,99504.52
2019-04-13T01:15:57.170Z,99499.47
2019-04-13T01:18:26.251Z,99492.86
2019-04-13T01:20:55.324Z,99491.56
2019-04-13T01:23:24.352Z,99492.30
2019-04-13T01:25:53.435Z,99489.25
2019-04-13T01:28:22.493Z,99503.41
2019-04-13T01:30:51.661Z,99498.50
2019-04-13T01:33:20.690Z,99501.59
2019-04-13T01:35:49.732Z,99496.27
2019-04-13T01:38:18.722Z,99496.62
2019-04-13T01:40:47.865Z,99491.59
2019-04-13T01:43:16.922Z,99487.62
2019-04-13T01:45:46.012Z,99494.50
2019-04-13T01:48:15.064Z,99487.48
2019-04-13T01:50:44.061Z,99488.48
2019-04-13T01:53:13.153Z,99488.62
2019-04-13T01:55:42.273Z,99492.05
2019-04-13T01:58:11.346Z,99483.45
2019-04-13T02:00:59.388Z,99484.59
2019-04-13T02:03:29.204Z,99470.88
2019-04-13T02:06:05.495Z,99473.23
2019-04-13T02:08:42.707Z,99467.25
2019-04-13T02:11:14.766Z,99465.36
2019-04-13T02:13:45.041Z,99471.30
2019-04-13T02:16:15.424Z,99468.41
2019-04-13T02:18:44.522Z,99463.40
2019-04-13T02:21:13.568Z,99464.42
2019-04-13T02:23:42.668Z,99464.95
2019-04-13T02:26:11.677Z,99455.26
2019-04-13T02:28:44.241Z,99462.92
2019-04-13T02:31:13.260Z,99455.65
2019-04-13T02:33:42.349Z,99455.05
2019-04-13T02:36:13.183Z,99457.08
2019-04-13T02:38:44.684Z,99447.54
2019-04-13T02:41:13.767Z,99457.88
2019-04-13T02:43:42.976Z,99455.69
2019-04-13T02:46:13.400Z,99455.95
2019-04-13T02:48:42.491Z,99459.25
2019-04-13T02:51:11.562Z,99452.06
2019-04-13T02:53:40.614Z,99451.20
2019-04-13T02:56:09.702Z,99426.15
2019-04-13T02:58:38.787Z,99446.63
2019-04-13T03:01:07.770Z,99449.26
2019-04-13T03:03:36.853Z,99453.63
2019-04-13T03:06:05.942Z,99450.63
2019-04-13T03:08:35.054Z,99449.00
2019-04-13T03:11:04.346Z,99455.62
2019-04-13T03:13:33.378Z,99448.66
2019-04-13T03:16:32.431Z,99452.03
2019-04-13T03:19:23.275Z,99448.16
2019-04-13T03:21:52.295Z,99456.98
2019-04-13T03:24:21.340Z,99451.09
2019-04-13T03:26:50.387Z,99447.19
2019-04-13T03:29:21.664Z,99442.27
2019-04-13T03:31:50.748Z,99449.92
2019-04-13T03:34:23.425Z,99449.79
2019-04-13T03:36:52.504Z,99459.13
2019-04-13T03:39:21.621Z,99446.73
2019-04-13T03:41:50.641Z,99455.72
2019-04-13T03:44:19.726Z,99459.50
2019-04-13T03:46:48.718Z,99448.20
2019-04-13T03:49:18.253Z,99455.84
2019-04-13T03:51:47.283Z,99449.88
2019-04-13T03:54:17.382Z,99451.30
2019-04-13T03:56:46.464Z,99449.34
2019-04-13T03:59:17.862Z,99452.64
2019-04-13T04:01:46.940Z,99453.81
2019-04-13T04:04:16.060Z,99452.78
2019-04-13T04:06:45.130Z,99451.08
2019-04-13T04:09:14.221Z,99444.78
2019-04-13T04:11:43.243Z,99451.75
2019-04-13T04:14:12.296Z,99446.05
2019-04-13T04:16:41.433Z,99450.73
2019-04-13T04:19:10.479Z,99453.17
2019-04-13T04:21:39.541Z,99452.50
2019-04-13T04:24:09.130Z,99455.39
2019-04-13T04:26:38.169Z,99456.05
2019-04-13T04:29:07.354Z,99455.09
2019-04-13T04:31:41.105Z,99409.20
2019-04-13T04:34:10.357Z,99452.30
2019-04-13T04:36:39.417Z,99458.78
2019-04-13T04:39:11.610Z,99465.55
2019-04-13T04:41:40.650Z,99463.17
2019-04-13T04:44:09.690Z,99459.73
2019-04-13T04:46:38.784Z,99467.18
2019-04-13T04:49:08.174Z,99462.49
2019-04-13T04:51:38.275Z,99461.55
2019-04-13T04:54:07.348Z,99465.08
2019-04-13T04:56:37.571Z,99472.38
2019-04-13T04:59:09.567Z,99464.77
2019-04-13T05:01:38.704Z,99465.77
2019-04-13T05:04:07.767Z,99469.90
2019-04-13T05:06:36.844Z,99474.67
2019-04-13T05:09:08.230Z,99468.39
2019-04-13T05:11:37.279Z,99472.02
2019-04-13T05:14:06.366Z,99469.20
2019-04-13T05:16:35.483Z,99271.76
2019-04-13T05:19:04.529Z,99475.73
2019-04-13T05:21:33.617Z,99474.58
2019-04-13T05:24:02.737Z,99482.66
2019-04-13T05:26:31.781Z,99482.00
2019-04-13T05:29:00.821Z,99484.50
2019-04-13T05:31:29.928Z,99487.08
2019-04-13T05:33:58.951Z,99486.14
2019-04-13T05:36:27.999Z,99488.03
2019-04-13T05:38:57.060Z,99493.20
2019-04-13T05:41:27.918Z,99497.44
2019-04-13T05:43:59.262Z,99495.41
2019-04-13T05:46:28.286Z,99499.66
2019-04-13T05:48:58.471Z,99498.80
2019-04-13T05:51:27.609Z,99499.68
2019-04-13T05:53:56.651Z,99496.42
2019-04-13T05:56:25.677Z,99503.16
2019-04-13T05:59:03.078Z,99497.31
2019-04-13T06:01:25.545Z,99505.34
2019-04-13T06:03:54.592Z,99508.13
2019-04-13T06:06:23.631Z,99510.91
2019-04-13T06:08:52.663Z,99511.97
2019-04-13T06:11:23.737Z,99517.59
2019-04-13T06:13:52.838Z,99510.38
2019-04-13T06:16:21.930Z,99512.39
2019-04-13T06:18:52.194Z,99508.69
2019-04-13T06:21:21.837Z,99515.83
2019-04-13T06:23:51.002Z,99516.38
2019-04-13T06:26:20.058Z,99513.48
2019-04-13T06:28:49.150Z,99517.31
2019-04-13T06:31:36.017Z,99528.73
2019-04-13T06:34:23.998Z,99524.45
2019-04-13T06:36:53.136Z,99527.73
2019-04-13T06:39:22.154Z,99529.04
2019-04-13T06:41:51.683Z,99526.06
2019-04-13T06:44:20.773Z,99528.75
2019-04-13T06:46:49.844Z,99530.81
2019-04-13T06:49:23.320Z,99532.76
2019-04-13T06:51:51.891Z,99536.02
2019-04-13T06:54:20.981Z,99537.94
2019-04-13T06:56:50.219Z,99532.83
2019-04-13T06:59:19.315Z,99532.89
2019-04-13T07:01:48.346Z,99534.00
2019-04-13T07:04:19.577Z,99527.52
2019-04-13T07:06:51.141Z,99529.16
2019-04-13T07:09:21.170Z,99532.12
2019-04-13T07:12:09.269Z,99531.39
2019-04-13T07:14:38.457Z,99527.32
2019-04-13T07:17:32.288Z,99528.52
2019-04-13T07:20:01.399Z,99533.23
2019-04-13T07:22:30.445Z,99530.31
2019-04-13T07:25:01.980Z,99535.64
2019-04-13T07:27:32.054Z,99536.21
2019-04-13T07:30:01.116Z,99529.61
2019-04-13T07:32:32.044Z,99534.45
2019-04-13T07:35:05.369Z,99535.77
2019-04-13T07:37:36.916Z,99538.17
2019-04-13T07:40:05.904Z,99535.45
2019-04-13T07:42:39.433Z,99532.33
2019-04-13T07:45:22.401Z,99537.45
2019-04-13T07:48:00.344Z,99538.89
2019-04-13T07:51:03.663Z,99543.74
2019-04-13T07:53:35.058Z,99542.98
2019-04-13T07:56:03.569Z,99544.58
2019-04-13T07:58:34.788Z,99543.77
2019-04-13T08:01:06.580Z,99536.99
2019-04-13T08:03:35.587Z,99547.88
2019-04-13T08:06:06.359Z,99545.12
2019-04-13T08:08:40.263Z,99539.25
2019-04-13T08:11:06.276Z,99541.92
2019-04-13T08:13:37.589Z,99544.99
2019-04-13T08:16:09.476Z,99545.39
2019-04-13T08:19:03.805Z,99541.60
2019-04-13T08:21:39.130Z,99536.15
2019-04-13T08:24:09.868Z,99532.19
2019-04-13T08:26:38.954Z,99540.00
2019-04-13T08:29:10.307Z,99533.30
2019-04-13T08:31:39.640Z,99544.60
2019-04-13T08:34:08.726Z,99535.13
2019-04-13T08:36:40.777Z,99532.16
2019-04-13T08:39:10.927Z,99532.91
2019-04-13T08:41:40.666Z,99532.66
2019-04-13T08:44:09.845Z,99535.77
2019-04-13T08:46:39.240Z,99536.64
2019-04-13T08:49:08.328Z,99536.22
2019-04-13T08:51:37.422Z,99536.38
2019-04-13T08:54:07.384Z,99538.45
2019-04-13T08:56:36.922Z,99538.27
2019-04-13T08:59:06.515Z,99538.48
2019-04-13T09:01:37.130Z,99535.70
2019-04-13T09:04:08.997Z,99533.62
2019-04-13T09:06:38.307Z,99534.81
2019-04-13T09:09:07.778Z,99534.15
2019-04-13T09:11:37.239Z,99531.52
2019-04-13T09:14:11.154Z,99524.66
2019-04-13T09:16:37.810Z,99526.19
2019-04-13T09:19:44.643Z,99527.69
2019-04-13T09:22:22.243Z,99525.09
2019-04-13T09:24:52.951Z,99523.45
2019-04-13T09:27:24.360Z,99535.37
2019-04-13T09:29:53.467Z,99529.05
2019-04-13T09:32:22.590Z,99533.81
2019-04-13T09:34:51.610Z,99533.73
2019-04-13T09:37:20.781Z,99540.27
2019-04-13T09:39:53.979Z,99536.22
2019-04-13T09:42:23.211Z,99535.53
2019-04-13T09:44:52.324Z,99433.65
2019-04-13T09:47:27.890Z,99528.45
2019-04-13T09:50:00.039Z,99375.09
2019-04-13T09:52:31.259Z,99527.91
2019-04-13T09:55:03.648Z,99522.57
2019-04-13T09:57:36.196Z,99519.11
2019-04-13T10:00:06.253Z,99520.68
2019-04-13T10:02:37.791Z,99523.86
2019-04-13T10:05:08.957Z,99525.64
2019-04-13T10:07:41.484Z,99523.61
2019-04-13T10:10:13.306Z,99523.48
2019-04-13T10:12:52.866Z,99522.33
2019-04-13T10:15:50.355Z,99519.26
2019-04-13T10:18:25.919Z,99508.83
2019-04-13T10:20:53.808Z,99517.04
2019-04-13T10:23:22.938Z,99508.94
2019-04-13T10:25:52.028Z,99506.64
2019-04-13T10:28:21.308Z,99509.55
2019-04-13T10:30:52.325Z,99503.67
2019-04-13T10:33:21.170Z,99506.14
2019-04-13T10:35:50.228Z,99509.05
2019-04-13T10:38:19.297Z,99505.27
2019-04-13T10:40:49.228Z,99505.31
2019-04-13T10:43:18.318Z,99510.11
2019-04-13T10:46:24.735Z,99512.74
2019-04-13T10:49:24.243Z,99510.30
2019-04-13T10:51:56.733Z,99506.71
2019-04-13T10:54:26.267Z,99496.41
2019-04-13T10:56:55.474Z,99498.91
2019-04-13T10:59:24.654Z,99493.06
2019-04-13T11:01:53.784Z,99493.84
2019-04-13T11:04:22.914Z,99486.23
2019-04-13T11:06:53.793Z,99487.42
2019-04-13T11:09:28.478Z,99477.44
2019-04-13T11:11:55.219Z,99478.32
2019-04-13T11:14:25.995Z,99473.91
2019-04-13T11:16:58.091Z,99470.27
2019-04-13T11:19:26.310Z,99471.22
2019-04-13T11:21:55.398Z,99460.39
2019-04-13T11:24:24.513Z,99453.81
2019-04-13T11:26:53.637Z,99456.38
2019-04-13T11:29:22.728Z,99448.09
2019-04-13T11:31:54.825Z,99447.73
2019-04-13T11:34:22.724Z,99441.55
2019-04-13T11:36:51.866Z,99441.20
2019-04-13T11:39:33.282Z,99429.61
2019-04-13T11:42:23.045Z,99433.38
2019-04-13T11:45:10.187Z,99423.13
2019-04-13T11:48:01.032Z,99414.27
2019-04-13T11:50:35.803Z,99422.34
2019-04-13T11:53:04.906Z,99433.13
2019-04-13T11:55:34.744Z,99418.71
2019-04-13T11:58:05.766Z,99426.36
2019-04-13T12:00:52.591Z,99416.55
2019-04-13T12:03:41.141Z,99412.68
2019-04-13T12:06:19.264Z,99409.56
2019-04-13T12:08:59.475Z,99414.50
2019-04-13T12:11:54.966Z,99421.22
2019-04-13T12:14:31.930Z,99431.26
2019-04-13T12:17:22.111Z,99425.49
2019-04-13T12:19:59.181Z,99429.28
2019-04-13T12:22:33.468Z,99431.05
2019-04-13T12:25:02.545Z,99437.14
2019-04-13T12:27:33.869Z,99440.06
2019-04-13T12:30:04.135Z,99428.09
2019-04-13T12:32:46.903Z,99433.32
2019-04-13T12:35:13.243Z,99426.25
2019-04-13T12:37:42.295Z,99435.95
2019-04-13T12:40:19.872Z,99447.84
2019-04-13T12:42:50.078Z,99446.90
2019-04-13T12:45:20.487Z,99451.86
2019-04-13T12:47:49.542Z,99445.32
2019-04-13T12:50:18.615Z,99442.38
2019-04-13T12:52:47.673Z,99445.77
2019-04-13T12:55:19.653Z,99444.77
2019-04-13T12:57:49.138Z,99451.35
2019-04-13T13:00:31.850Z,99435.27
2019-04-13T13:03:02.672Z,99440.29
2019-04-13T13:05:34.751Z,99437.20
2019-04-13T13:08:08.091Z,99443.08
2019-04-13T13:10:35.010Z,99431.36
2019-04-13T13:13:04.062Z,99441.12
2019-04-13T13:15:33.164Z,99439.87
2019-04-13T13:18:02.159Z,99433.92
2019-04-13T13:20:31.468Z,99429.37
2019-04-13T13:23:00.540Z,99444.89
2019-04-13T13:25:29.749Z,99435.73
2019-04-13T13:27:58.935Z,99435.55
2019-04-13T13:30:27.940Z,99432.20
2019-04-13T13:32:59.070Z,99427.94
2019-04-13T13:35:32.468Z,99419.98
2019-04-13T13:38:05.045Z,99413.75
2019-04-13T13:40:33.605Z,99417.05
2019-04-13T13:43:02.906Z,99416.89
2019-04-13T13:45:32.475Z,99409.98
2019-04-13T13:48:02.921Z,99410.22
2019-04-13T13:50:31.906Z,99407.52
2019-04-13T13:53:02.231Z,99404.07
2019-04-13T13:55:31.386Z,99402.82
2019-04-13T13:58:23.257Z,99393.84
2019-04-13T14:01:17.673Z,99380.16
2019-04-13T14:03:48.275Z,99396.62
2019-04-13T14:06:18.514Z,99387.94
2019-04-13T14:08:51.512Z,99374.70
2019-04-13T14:11:20.067Z,99374.53
2019-04-13T14:13:52.255Z,99378.62
2019-04-13T14:16:22.587Z,99376.77
2019-04-13T14:18:51.706Z,99376.08
2019-04-13T14:21:20.737Z,99373.19
2019-04-13T14:23:49.881Z,99363.66
2019-04-13T14:26:18.876Z,99375.30
2019-04-13T14:28:48.015Z,99373.48
2019-04-13T14:31:17.410Z,99371.90
2019-04-13T14:33:48.763Z,99364.74
2019-04-13T14:36:17.946Z,99363.10
2019-04-13T14:38:47.016Z,99365.17
2019-04-13T14:41:16.057Z,99353.85
2019-04-13T14:43:47.559Z,99363.58
2019-04-13T14:46:15.925Z,99364.58
2019-04-13T14:48:45.078Z,99363.16
2019-04-13T14:51:14.037Z,99362.77
2019-04-13T14:53:46.081Z,99354.14
2019-04-13T14:56:14.192Z,99350.71
2019-04-13T14:58:45.831Z,99348.25
2019-04-13T15:01:14.075Z,99356.07
2019-04-13T15:03:43.152Z,99342.94
2019-04-13T15:06:14.263Z,99358.94
2019-04-13T15:08:43.933Z,99356.54
2019-04-13T15:11:17.522Z,99354.29
2019-04-13T15:13:45.099Z,99353.49
2019-04-13T15:16:18.758Z,99352.22
2019-04-13T15:19:11.410Z,99352.54
2019-04-13T15:21:35.158Z,99356.36
2019-04-13T15:24:04.770Z,99357.47
2019-04-13T15:26:39.406Z,99355.17
2019-04-13T15:29:07.572Z,99360.55
2019-04-13T15:31:39.236Z,99356.67
2019-04-13T15:34:11.524Z,99356.70
2019-04-13T15:36:44.217Z,99353.72
2019-04-13T15:39:20.606Z,99365.08
2019-04-13T15:41:58.824Z,99356.91
2019-04-13T15:44:21.905Z,99277.15
2019-04-13T15:46:51.604Z,99350.46
2019-04-13T15:49:20.778Z,99356.95
2019-04-13T15:51:49.882Z,99357.86
2019-04-13T15:54:18.958Z,99362.91
2019-04-13T15:56:55.298Z,99358.11
2019-04-13T15:59:24.529Z,99361.05
2019-04-13T16:01:53.660Z,99355.25
2019-04-13T16:04:23.059Z,99364.97
2019-04-13T16:06:52.975Z,99363.92
2019-04-13T16:09:57.476Z,99357.33
2019-04-13T16:12:32.467Z,99365.20
2019-04-13T16:15:01.693Z,99363.94
2019-04-13T16:17:31.671Z,99360.37
2019-04-13T16:20:01.151Z,99369.53
2019-04-13T16:22:30.247Z,99372.45
2019-04-13T16:24:59.371Z,99377.00
2019-04-13T16:27:33.619Z,99382.05
2019-04-13T16:30:21.393Z,99380.60
2019-04-13T16:33:13.077Z,99381.66
2019-04-13T16:35:56.365Z,99380.45
2019-04-13T16:38:26.443Z,99380.26
2019-04-13T16:40:56.477Z,99380.94
2019-04-13T16:43:33.110Z,99382.56
2019-04-13T16:46:11.515Z,99382.30
2019-04-13T16:49:04.757Z,99376.86
2019-04-13T16:51:45.713Z,99379.02
2019-04-13T16:54:31.284Z,99370.95
2019-04-13T16:57:40.239Z,99372.59
2019-04-13T17:00:30.850Z,99376.39
2019-04-13T17:03:12.163Z,99380.44
2019-04-13T17:05:41.934Z,99374.44
2019-04-13T17:08:11.926Z,99376.80
2019-04-13T17:10:42.119Z,99379.57
2019-04-13T17:13:12.510Z,99383.58
2019-04-13T17:15:42.027Z,99380.48
2019-04-13T17:18:19.049Z,99381.98
2019-04-13T17:21:12.851Z,99383.44
2019-04-13T17:23:54.174Z,99376.95
2019-04-13T17:26:38.504Z,99379.17
2019-04-13T17:29:19.382Z,99379.72
2019-04-13T17:32:16.375Z,99385.89
2019-04-13T17:35:04.508Z,99378.20
2019-04-13T17:37:34.167Z,99384.48
2019-04-13T17:40:03.541Z,99383.40
2019-04-13T17:42:57.584Z,99382.98
2019-04-13T17:45:48.346Z,99389.34
2019-04-13T17:48:35.468Z,99388.52
2019-04-13T17:51:14.512Z,99384.25
2019-04-13T17:53:53.864Z,99386.14
2019-04-13T17:56:24.168Z,99385.53
2019-04-13T17:59:13.392Z,99384.43
2019-04-13T18:02:00.489Z,99386.50
2019-04-13T18:04:47.934Z,99390.17
2019-04-13T18:07:48.797Z,99399.52
2019-04-13T18:10:29.568Z,99394.81
2019-04-13T18:13:24.707Z,99403.39
2019-04-13T18:16:13.079Z,99397.09
2019-04-13T18:18:49.667Z,99405.19
2019-04-13T18:21:19.890Z,99407.70
2019-04-13T18:23:48.892Z,99415.96
2019-04-13T18:26:18.506Z,99419.70
2019-04-13T18:28:50.102Z,99412.02
2019-04-13T18:31:20.589Z,99422.04
2019-04-13T18:33:51.692Z,99422.48
2019-04-13T18:36:21.582Z,99430.36
2019-04-13T18:38:52.131Z,99423.86
2019-04-13T18:41:22.281Z,99430.56
2019-04-13T18:43:51.821Z,99426.77
2019-04-13T18:46:21.957Z,99436.78
2019-04-13T18:48:53.223Z,99439.66
2019-04-13T18:51:23.411Z,99434.11
2019-04-13T18:53:53.000Z,99434.11
2019-04-13T18:56:23.145Z,99434.65
2019-04-13T18:58:54.456Z,99442.00
2019-04-13T19:01:25.027Z,99436.84
2019-04-13T19:03:54.238Z,99450.30
2019-04-13T19:06:27.298Z,99449.26
2019-04-13T19:08:54.219Z,99453.78
2019-04-13T19:11:23.347Z,99456.03
2019-04-13T19:13:52.467Z,99452.05
2019-04-13T19:16:21.473Z,99457.27
2019-04-13T19:18:50.650Z,99470.25
2019-04-13T19:21:19.803Z,99463.61
2019-04-13T19:23:48.935Z,99469.58
2019-04-13T19:26:19.051Z,99466.31
2019-04-13T19:28:48.232Z,99474.45
2019-04-13T19:31:17.493Z,99469.05
2019-04-13T19:33:46.661Z,99471.48
2019-04-13T19:36:15.747Z,99474.48
2019-04-13T19:38:44.904Z,99478.98
2019-04-13T19:41:14.016Z,99471.14
2019-04-13T19:43:43.133Z,99470.98
2019-04-13T19:46:12.302Z,99476.02
2019-04-13T19:48:41.486Z,99478.56
2019-04-13T19:51:10.540Z,99480.81
2019-04-13T19:54:06.076Z,99484.19
2019-04-13T19:56:35.098Z,99471.39
2019-04-13T19:59:05.294Z,99472.20
2019-04-13T20:01:34.279Z,99482.78
2019-04-13T20:04:03.347Z,99479.22
2019-04-13T20:06:33.425Z,99474.84
2019-04-13T20:09:03.035Z,99467.83
2019-04-13T20:11:32.060Z,99471.47
2019-04-13T20:14:05.901Z,99470.16
2019-04-13T20:16:32.076Z,99472.16
2019-04-13T20:19:01.071Z,99476.08
2019-04-13T20:21:30.094Z,99472.20
2019-04-13T20:23:59.309Z,99469.97
2019-04-13T20:26:29.377Z,99472.83
2019-04-13T20:28:59.295Z,99466.78
2019-04-13T20:31:28.953Z,99479.78
2019-04-13T20:33:58.895Z,99474.65
2019-04-13T20:36:28.930Z,99475.77
2019-04-13T20:38:58.508Z,99475.55
2019-04-13T20:41:40.593Z,99471.69
2019-04-13T20:44:04.747Z,99472.66
2019-04-13T20:46:29.985Z,99464.15
2019-04-13T20:49:00.400Z,99471.37
2019-04-13T20:51:32.010Z,99464.72
2019-04-13T20:54:01.229Z,99467.61
2019-04-13T20:56:32.102Z,99465.23
2019-04-13T20:59:01.822Z,99466.24
2019-04-13T21:01:32.109Z,99462.77
2019-04-13T21:04:04.309Z,99461.53
2019-04-13T21:06:34.652Z,99463.15
2019-04-13T21:09:07.577Z,99468.84
2019-04-13T21:11:37.363Z,99458.29
2019-04-13T21:14:14.404Z,99458.42
2019-04-13T21:16:37.188Z,99460.36
2019-04-13T21:19:09.160Z,99462.05
2019-04-13T21:21:38.820Z,99459.42
2019-04-13T21:24:09.098Z,99457.03
2019-04-13T21:26:39.204Z,99458.02
2019-04-13T21:29:10.953Z,99451.92
2019-04-13T21:31:41.014Z,99450.80
2019-04-13T21:34:13.523Z,99445.70
2019-04-13T21:36:43.486Z,99452.14
2019-04-13T21:39:14.043Z,99450.03
2019-04-13T21:41:43.474Z,99452.47
2019-04-13T21:44:23.657Z,99451.84
2019-04-13T21:46:46.028Z,99448.54
2019-04-13T21:49:16.366Z,99447.23
2019-04-13T21:51:55.204Z,99447.23
2019-04-13T21:54:28.134Z,99454.91
2019-04-13T21:56:58.061Z,99449.54
2019-04-13T21:59:28.146Z,99448.06
2019-04-13T22:02:04.893Z,99449.98
2019-04-13T22:04:34.806Z,99287.17
2019-04-13T22:07:07.107Z,99447.91
2019-04-13T22:09:37.028Z,99445.42
2019-04-13T22:12:06.919Z,99447.63
2019-04-13T22:14:45.104Z,99443.86
2019-04-13T22:17:09.589Z,99445.44
2019-04-13T22:19:39.759Z,99443.45
2019-04-13T22:22:11.908Z,99444.80
2019-04-13T22:24:42.003Z,99434.45
2019-04-13T22:27:12.944Z,99439.86
2019-04-13T22:30:05.945Z,99433.91
2019-04-13T22:32:42.924Z,99436.23
2019-04-13T22:35:26.299Z,99433.89
2019-04-13T22:37:56.021Z,99438.75
2019-04-13T22:40:25.717Z,99429.58
2019-04-13T22:42:56.421Z,99431.83
2019-04-13T22:45:26.044Z,99431.98
2019-04-13T22:48:09.612Z,99433.58
2019-04-13T22:50:58.929Z,99437.75
2019-04-13T22:53:46.152Z,99435.89
2019-04-13T22:56:22.317Z,99437.97
2019-04-13T22:58:53.694Z,99432.21
2019-04-13T23:01:26.604Z,99425.42
2019-04-13T23:03:55.732Z,99427.48
2019-04-13T23:06:24.979Z,99425.86
2019-04-13T23:08:55.247Z,99422.12
2019-04-13T23:11:25.562Z,99422.67
2019-04-13T23:13:54.607Z,99427.59
2019-04-13T23:16:23.902Z,99420.94
2019-04-13T23:18:53.586Z,99424.88
2019-04-13T23:21:24.159Z,99417.25
2019-04-13T23:23:55.061Z,99414.85
2019-04-13T23:26:25.474Z,99411.30
2019-04-13T23:28:57.457Z,99406.74
2019-04-13T23:31:28.310Z,99409.00
2019-04-13T23:33:59.223Z,99400.17
2019-04-13T23:36:28.979Z,99398.00
2019-04-13T23:38:59.456Z,99295.70
2019-04-13T23:41:30.008Z,99392.61
2019-04-13T23:44:00.432Z,99397.84
2019-04-13T23:46:30.692Z,99397.20
2019-04-13T23:48:59.734Z,99394.27
2019-04-13T23:51:31.654Z,99389.97
2019-04-13T23:54:02.042Z,99392.00
2019-04-13T23:57:02.942Z,99391.23
2019-04-13T23:59:41.558Z,99386.47
